createdAt,value
2023-03-23T15:58:21.766Z,20.04
2023-03-23T16:00:49.519Z,20.06
2023-03-23T16:03:25.454Z,20.15
2023-03-23T16:05:52.795Z,20.29
2023-03-23T16:08:20.051Z,20.13
2023-03-23T16:10:47.404Z,20.09
2023-03-23T16:13:14.918Z,19.96
2023-03-23T16:15:42.508Z,20.04
2023-03-23T16:18:17.133Z,20.02
2023-03-23T16:20:44.517Z,20.04
2023-03-23T16:23:11.829Z,19.91
2023-03-23T16:25:39.192Z,19.96
2023-03-23T16:28:06.488Z,19.95
2023-03-23T16:30:34.881Z,19.95
2023-03-23T16:33:02.307Z,19.99
2023-03-23T16:35:29.584Z,19.91
2023-03-23T16:38:07.821Z,19.85
2023-03-23T16:40:41.817Z,19.75
2023-03-23T16:43:09.804Z,19.75
2023-03-23T16:45:38.459Z,19.86
2023-03-23T16:48:06.197Z,19.85
2023-03-23T16:50:33.870Z,19.74
2023-03-23T16:53:01.255Z,19.68
2023-03-23T16:55:28.697Z,19.71
2023-03-23T16:58:13.092Z,19.51
2023-03-23T17:00:44.994Z,19.28
2023-03-23T17:03:13.387Z,18.99
2023-03-23T17:05:41.035Z,18.88
2023-03-23T17:08:08.425Z,18.81
2023-03-23T17:10:37.335Z,18.92
2023-03-23T17:13:04.774Z,19.00
2023-03-23T17:15:32.168Z,19.06
2023-03-23T17:17:59.582Z,19.11
2023-03-23T17:20:26.965Z,19.26
2023-03-23T17:22:54.244Z,19.27
2023-03-23T17:25:21.607Z,19.03
2023-03-23T17:27:52.177Z,19.00
2023-03-23T17:30:19.498Z,18.89
2023-03-23T17:32:48.053Z,18.85
2023-03-23T17:35:16.205Z,18.75
2023-03-23T17:37:43.551Z,18.58
2023-03-23T17:40:11.298Z,18.25
2023-03-23T17:42:38.673Z,18.05
2023-03-23T17:45:07.424Z,17.94
2023-03-23T17:47:34.889Z,17.94
2023-03-23T17:50:11.844Z,17.87
2023-03-23T17:52:41.140Z,17.66
2023-03-23T17:55:08.481Z,17.70
2023-03-23T17:57:35.983Z,17.86
2023-03-23T18:00:07.185Z,17.62
2023-03-23T18:02:36.098Z,17.50
2023-03-23T18:05:03.786Z,17.42
2023-03-23T18:07:31.548Z,17.62
2023-03-23T18:10:02.112Z,17.62
2023-03-23T18:12:29.450Z,17.61
2023-03-23T18:14:58.059Z,17.66
2023-03-23T18:17:25.906Z,17.66
2023-03-23T18:19:53.251Z,17.40
2023-03-23T18:22:20.771Z,17.21
2023-03-23T18:24:48.105Z,17.21
2023-03-23T18:27:15.506Z,17.15
2023-03-23T18:29:42.994Z,16.97
2023-03-23T18:32:10.393Z,17.10
2023-03-23T18:34:40.137Z,16.94
2023-03-23T18:37:07.419Z,16.76
2023-03-23T18:39:34.746Z,16.77
2023-03-23T18:42:02.046Z,16.68
2023-03-23T18:44:30.512Z,16.56
2023-03-23T18:46:57.823Z,16.53
2023-03-23T18:49:25.213Z,16.57
2023-03-23T18:51:52.615Z,16.46
2023-03-23T18:54:19.910Z,16.30
2023-03-23T18:56:47.242Z,16.37
2023-03-23T18:59:14.519Z,16.40
2023-03-23T19:01:41.813Z,16.39
2023-03-23T19:04:09.176Z,16.36
2023-03-23T19:06:36.491Z,16.29
2023-03-23T19:09:04.117Z,16.34
2023-03-23T19:11:31.612Z,16.30
2023-03-23T19:14:02.807Z,16.12
2023-03-23T19:16:32.551Z,16.08
2023-03-23T19:19:01.760Z,16.13
2023-03-23T19:21:31.954Z,16.02
2023-03-23T19:24:00.066Z,15.84
2023-03-23T19:26:36.563Z,15.87
2023-03-23T19:29:26.050Z,15.64
2023-03-23T19:31:57.738Z,15.69
2023-03-23T19:34:25.871Z,15.55
2023-03-23T19:36:59.538Z,15.43
2023-03-23T19:39:32.177Z,15.75
2023-03-23T19:41:59.533Z,15.87
2023-03-23T19:44:27.515Z,15.58
2023-03-23T19:46:56.346Z,15.53
2023-03-23T19:49:25.057Z,15.29
2023-03-23T19:52:07.931Z,15.30
2023-03-23T19:54:38.890Z,15.30
2023-03-23T19:57:06.979Z,15.34
2023-03-23T19:59:34.803Z,15.11
2023-03-23T20:02:02.265Z,15.02
2023-03-23T20:04:29.894Z,14.93
2023-03-23T20:06:57.563Z,14.80
2023-03-23T20:09:25.285Z,14.78
2023-03-23T20:11:53.679Z,14.79
2023-03-23T20:14:21.056Z,14.88
2023-03-23T20:16:48.439Z,14.80
2023-03-23T20:19:16.503Z,14.72
2023-03-23T20:21:45.043Z,14.73
2023-03-23T20:24:12.436Z,14.80
2023-03-23T20:26:42.415Z,14.78
2023-03-23T20:29:09.849Z,14.72
2023-03-23T20:31:38.822Z,14.64
2023-03-23T20:34:11.024Z,14.45
2023-03-23T20:36:40.576Z,14.34
2023-03-23T20:39:15.587Z,14.38
2023-03-23T20:41:43.830Z,14.41
2023-03-23T20:44:15.986Z,14.58
2023-03-23T20:46:44.717Z,14.45
2023-03-23T20:49:13.152Z,14.27
2023-03-23T20:51:40.526Z,14.13
2023-03-23T20:54:07.876Z,13.79
2023-03-23T20:56:35.694Z,13.66
2023-03-23T20:59:03.181Z,13.53
2023-03-23T21:01:33.328Z,13.45
2023-03-23T21:04:03.217Z,13.46
2023-03-23T21:06:31.104Z,13.45
2023-03-23T21:08:58.498Z,13.42
2023-03-23T21:11:26.751Z,13.38
2023-03-23T21:13:54.143Z,13.39
2023-03-23T21:16:23.117Z,13.39
2023-03-23T21:18:50.797Z,13.42
2023-03-23T21:21:18.577Z,13.42
2023-03-23T21:23:52.776Z,13.42
2023-03-23T21:26:22.640Z,13.41
2023-03-23T21:28:50.977Z,13.45
2023-03-23T21:31:18.409Z,13.41
2023-03-23T21:33:46.090Z,13.41
2023-03-23T21:36:13.481Z,13.39
2023-03-23T21:38:41.133Z,13.38
2023-03-23T21:41:10.941Z,13.41
2023-03-23T21:43:40.782Z,13.31
2023-03-23T21:46:09.241Z,13.25
2023-03-23T21:48:38.834Z,13.32
2023-03-23T21:51:10.017Z,13.51
2023-03-23T21:53:37.399Z,13.43
2023-03-23T21:56:06.223Z,13.25
2023-03-23T21:58:33.756Z,13.14
2023-03-23T22:01:02.230Z,13.07
2023-03-23T22:03:33.071Z,13.14
2023-03-23T22:06:09.941Z,13.21
2023-03-23T22:08:38.436Z,13.14
2023-03-23T22:11:08.320Z,13.14
2023-03-23T22:13:37.245Z,13.15
2023-03-23T22:16:06.918Z,13.16
2023-03-23T22:18:34.874Z,13.04
2023-03-23T22:21:02.228Z,12.95
2023-03-23T22:23:29.598Z,12.90
2023-03-23T22:25:57.478Z,12.91
2023-03-23T22:28:28.226Z,13.07
2023-03-23T22:30:59.481Z,13.08
2023-03-23T22:33:26.799Z,13.11
2023-03-23T22:35:54.099Z,13.22
2023-03-23T22:38:21.450Z,13.11
2023-03-23T22:40:56.876Z,12.81
2023-03-23T22:43:24.474Z,12.63
2023-03-23T22:45:52.021Z,12.77
2023-03-23T22:48:20.357Z,12.54
2023-03-23T22:50:47.831Z,12.52
2023-03-23T22:53:15.958Z,12.57
2023-03-23T22:55:51.606Z,12.60
2023-03-23T22:58:19.271Z,12.59
2023-03-23T23:00:49.093Z,12.59
2023-03-23T23:03:16.881Z,12.52
2023-03-23T23:05:50.056Z,12.39
2023-03-23T23:08:18.167Z,12.33
2023-03-23T23:10:46.995Z,12.29
2023-03-23T23:13:14.622Z,12.09
2023-03-23T23:15:45.350Z,11.96
2023-03-23T23:18:12.656Z,11.98
2023-03-23T23:20:40.042Z,12.14
2023-03-23T23:23:07.446Z,12.14
2023-03-23T23:25:35.024Z,12.05
2023-03-23T23:28:03.351Z,12.06
2023-03-23T23:30:30.915Z,11.99
2023-03-23T23:32:58.974Z,11.96
2023-03-23T23:35:26.560Z,12.04
2023-03-23T23:37:54.143Z,12.04
2023-03-23T23:40:21.504Z,11.67
2023-03-23T23:42:50.449Z,11.53
2023-03-23T23:45:18.343Z,11.60
2023-03-23T23:47:46.660Z,11.65
2023-03-23T23:50:14.300Z,11.53
2023-03-23T23:52:42.692Z,11.56
2023-03-23T23:55:10.814Z,11.47
2023-03-23T23:57:38.224Z,11.44
